Jacksonville, GA (31544)

7:48 AM EDT on June 25, 2018 (GMT -0400)
rural georgia | | Change Station
Active Advisory: Heat Advisory

Elev 147 ft 31.91 °N, 82.70 °W | Updated 16 seconds ago

Clear
Clear
76.8 °F
Feels Like 77 °F
N
0
Wind Variable Wind from SSW
Gusts 0.0 mph

Today
High -- | Low -- °F
--% Chance of Precip.
Yesterday
High -- | Low -- °F
Precip. -- in
Pressure 30.12 in
Visibility 10.0 miles
Clouds Clear
Heat Index 77 °F
Dew Point 76 °F
Humidity 98%
Rainfall 0.00 in
Snow Depth Not available.
6:27 AM 8:41 PM
Waxing Gibbous, 93% visible
METAR KFZG 251135Z AUTO 18003KT 10SM CLR 26/25 A3012 RMK AO2 T02610250
Pressure 30.12 in
Visibility 10.0 miles
Clouds Clear
Heat Index 77 °F
Dew Point 76 °F
Humidity 98%
Rainfall 0.00 in
Snow Depth Not available.
6:27 AM 8:41 PM
Waxing Gibbous, 93% visible
METAR KFZG 251135Z AUTO 18003KT 10SM CLR 26/25 A3012 RMK AO2 T02610250

Get Your Daily Forecast Email!

Thanks for signing up!

Be on the lookout for a verification email in your inbox.

You'll start receiving severe weather alerts in your inbox..

×

10-Day Weather Forecast

Almanac

Astronomy

Jun. 25, 2018 Rise Set
Actual Time
Civil Twilight
Nautical Twilight
Astronomical Twilight
Moon
Length of Visible Light
Length of Day
Tomorrow will be .
, % of the Moon is Illuminated

Today's Extremes

State Highs State Lows

Community

WunderPhotos

Category 6

Welcome to Category 6. This is the collective home for Weather Underground's featured writeups by Dr. Jeff Masters (right), Bob Henson (left), Chris Burt, and other regular contributors.

Nearby

Air Quality

  Air Quality AQ Index Pollutant
Not available.

Snow Depth

Station Depth Elevation

Earthquake Activity

City Distance Mag. Time & Date
Minimum magnitude displayed is 2.5.

Coastal Water Temperatures

Place Temperature

Stations

Nearby Weather Stations

Station Location Temp. Windchill Dew Point Humidity Wind Precip. Elev Updated Type
                   

Watches & Warnings

Heat Advisory
Issued: 6:40 AM EDT Jun. 25, 2018 – National Weather Service

... Heat advisory remains in effect from noon today to 8 PM EDT
this evening...

* locations... portions of central Georgia.

* Heat index values... around 105 degrees.

* Impacts... the heat and humidity may cause heat stress during
outdoor activities.

Precautionary/preparedness actions...

A heat advisory means that a period of dangerous heat is
expected. The combination of hot temperatures and high humidity
will create heat index readings of at least 105 degrees and very
warm overnight temperatures. Drink plenty of fluids... stay in an
air-conditioned room and stay out of direct sunshine. Remember...
the elderly... very Young... and people with heart conditions are
most at risk in extreme heat. Friends... relatives... and
neighbors should check on people who may be at risk.